sensor_id;sensor_type;location;lat;lon;timestamp;pressure;altitude;pressure_sealevel;temperature
76541;BMP280;65385;55.772;37.658;2024-02-21T00:00:07;100605.91;;;-8.37
76541;BMP280;65385;55.772;37.658;2024-02-21T00:01:07;100605.19;;;-8.39
76541;BMP280;65385;55.772;37.658;2024-02-21T00:02:08;100604.38;;;-8.40
76541;BMP280;65385;55.772;37.658;2024-02-21T00:03:09;100596.78;;;-8.40
76541;BMP280;65385;55.772;37.658;2024-02-21T00:04:09;100601.03;;;-8.40
76541;BMP280;65385;55.772;37.658;2024-02-21T00:05:10;100599.44;;;-8.41
76541;BMP280;65385;55.772;37.658;2024-02-21T00:06:11;100602.06;;;-8.43
76541;BMP280;65385;55.772;37.658;2024-02-21T00:07:12;100599.63;;;-8.44
76541;BMP280;65385;55.772;37.658;2024-02-21T00:08:12;100592.81;;;-8.44
76541;BMP280;65385;55.772;37.658;2024-02-21T00:09:13;100593.72;;;-8.45
76541;BMP280;65385;55.772;37.658;2024-02-21T00:10:14;100594.66;;;-8.46
76541;BMP280;65385;55.772;37.658;2024-02-21T00:11:14;100594.75;;;-8.47
76541;BMP280;65385;55.772;37.658;2024-02-21T00:12:15;100594.88;;;-8.49
76541;BMP280;65385;55.772;37.658;2024-02-21T00:13:15;100586.56;;;-8.51
76541;BMP280;65385;55.772;37.658;2024-02-21T00:14:16;100584.09;;;-8.52
76541;BMP280;65385;55.772;37.658;2024-02-21T00:15:17;100585.75;;;-8.51
76541;BMP280;65385;55.772;37.658;2024-02-21T00:16:17;100589.16;;;-8.52
76541;BMP280;65385;55.772;37.658;2024-02-21T00:17:18;100592.63;;;-8.53
76541;BMP280;65385;55.772;37.658;2024-02-21T00:18:19;100585.94;;;-8.54
76541;BMP280;65385;55.772;37.658;2024-02-21T00:19:19;100581.00;;;-8.56
76541;BMP280;65385;55.772;37.658;2024-02-21T00:20:20;100583.53;;;-8.56
76541;BMP280;65385;55.772;37.658;2024-02-21T00:21:20;100583.72;;;-8.59
76541;BMP280;65385;55.772;37.658;2024-02-21T00:22:21;100584.53;;;-8.58
76541;BMP280;65385;55.772;37.658;2024-02-21T00:23:22;100581.19;;;-8.59
76541;BMP280;65385;55.772;37.658;2024-02-21T00:24:22;100586.25;;;-8.59
76541;BMP280;65385;55.772;37.658;2024-02-21T00:25:23;100584.63;;;-8.60
76541;BMP280;65385;55.772;37.658;2024-02-21T00:26:24;100587.16;;;-8.60
76541;BMP280;65385;55.772;37.658;2024-02-21T00:27:26;100580.28;;;-8.58
76541;BMP280;65385;55.772;37.658;2024-02-21T00:28:26;100584.31;;;-8.55
76541;BMP280;65385;55.772;37.658;2024-02-21T00:29:27;100585.13;;;-8.55
76541;BMP280;65385;55.772;37.658;2024-02-21T00:30:28;100577.41;;;-8.53
76541;BMP280;65385;55.772;37.658;2024-02-21T00:31:28;100582.31;;;-8.50
76541;BMP280;65385;55.772;37.658;2024-02-21T00:32:29;100583.69;;;-8.46
76541;BMP280;65385;55.772;37.658;2024-02-21T00:33:29;100576.91;;;-8.46
76541;BMP280;65385;55.772;37.658;2024-02-21T00:34:30;100581.78;;;-8.43
76541;BMP280;65385;55.772;37.658;2024-02-21T00:35:30;100583.28;;;-8.40
76541;BMP280;65385;55.772;37.658;2024-02-21T00:36:31;100582.38;;;-8.39
76541;BMP280;65385;55.772;37.658;2024-02-21T00:37:32;100579.63;;;-8.36
76541;BMP280;65385;55.772;37.658;2024-02-21T00:38:32;100582.06;;;-8.34
76541;BMP280;65385;55.772;37.658;2024-02-21T00:39:33;100575.16;;;-8.32
76541;BMP280;65385;55.772;37.658;2024-02-21T00:40:34;100576.59;;;-8.28
76541;BMP280;65385;55.772;37.658;2024-02-21T00:41:35;100576.34;;;-8.25
76541;BMP280;65385;55.772;37.658;2024-02-21T00:42:36;100579.59;;;-8.23
76541;BMP280;65385;55.772;37.658;2024-02-21T00:43:37;100578.56;;;-8.21
76541;BMP280;65385;55.772;37.658;2024-02-21T00:44:37;100571.56;;;-8.17
76541;BMP280;65385;55.772;37.658;2024-02-21T00:45:38;100574.91;;;-8.17
76541;BMP280;65385;55.772;37.658;2024-02-21T00:46:38;100573.91;;;-8.14
76541;BMP280;65385;55.772;37.658;2024-02-21T00:47:39;100561.22;;;-8.14
76541;BMP280;65385;55.772;37.658;2024-02-21T00:48:39;100566.78;;;-8.09
76541;BMP280;65385;55.772;37.658;2024-02-21T00:49:40;100568.41;;;-8.08
76541;BMP280;65385;55.772;37.658;2024-02-21T00:50:41;100569.78;;;-8.04
76541;BMP280;65385;55.772;37.658;2024-02-21T00:51:41;100564.50;;;-8.01
76541;BMP280;65385;55.772;37.658;2024-02-21T00:52:42;100561.88;;;-7.99
76541;BMP280;65385;55.772;37.658;2024-02-21T00:53:43;100563.38;;;-7.97
76541;BMP280;65385;55.772;37.658;2024-02-21T00:54:44;100557.28;;;-7.94
76541;BMP280;65385;55.772;37.658;2024-02-21T00:55:45;100558.81;;;-7.92
76541;BMP280;65385;55.772;37.658;2024-02-21T00:56:46;100560.28;;;-7.89
76541;BMP280;65385;55.772;37.658;2024-02-21T00:57:47;100559.31;;;-7.87
76541;BMP280;65385;55.772;37.658;2024-02-21T00:58:48;100553.09;;;-7.83
76541;BMP280;65385;55.772;37.658;2024-02-21T00:59:48;100556.41;;;-7.82
76541;BMP280;65385;55.772;37.658;2024-02-21T01:00:49;100549.63;;;-7.82
76541;BMP280;65385;55.772;37.658;2024-02-21T01:01:49;100556.09;;;-7.78
76541;BMP280;65385;55.772;37.658;2024-02-21T01:02:50;100546.78;;;-7.77
76541;BMP280;65385;55.772;37.658;2024-02-21T01:03:51;100550.81;;;-7.75
76541;BMP280;65385;55.772;37.658;2024-02-21T01:04:53;100549.78;;;-7.72
76541;BMP280;65385;55.772;37.658;2024-02-21T01:05:54;100549.56;;;-7.69
76541;BMP280;65385;55.772;37.658;2024-02-21T01:06:55;100541.81;;;-7.67
76541;BMP280;65385;55.772;37.658;2024-02-21T01:07:55;100534.94;;;-7.65
76541;BMP280;65385;55.772;37.658;2024-02-21T01:08:56;100539.78;;;-7.62
76541;BMP280;65385;55.772;37.658;2024-02-21T01:09:56;100534.63;;;-7.61
76541;BMP280;65385;55.772;37.658;2024-02-21T01:10:57;100531.00;;;-7.58
76541;BMP280;65385;55.772;37.658;2024-02-21T01:11:58;100543.59;;;-7.57
76541;BMP280;65385;55.772;37.658;2024-02-21T01:12:58;100530.00;;;-7.56
76541;BMP280;65385;55.772;37.658;2024-02-21T01:13:59;100539.91;;;-7.53
76541;BMP280;65385;55.772;37.658;2024-02-21T01:14:59;100536.47;;;-7.52
76541;BMP280;65385;55.772;37.658;2024-02-21T01:16:00;100531.28;;;-7.50
76541;BMP280;65385;55.772;37.658;2024-02-21T01:17:01;100524.47;;;-7.50
76541;BMP280;65385;55.772;37.658;2024-02-21T01:18:02;100532.78;;;-7.48
76541;BMP280;65385;55.772;37.658;2024-02-21T01:19:02;100527.72;;;-7.48
76541;BMP280;65385;55.772;37.658;2024-02-21T01:20:03;100530.94;;;-7.46
76541;BMP280;65385;55.772;37.658;2024-02-21T01:21:06;100533.34;;;-7.44
76541;BMP280;65385;55.772;37.658;2024-02-21T01:22:07;100529.94;;;-7.43
76541;BMP280;65385;55.772;37.658;2024-02-21T01:23:08;100521.38;;;-7.42
76541;BMP280;65385;55.772;37.658;2024-02-21T01:24:08;100531.31;;;-7.39
76541;BMP280;65385;55.772;37.658;2024-02-21T01:25:09;100526.09;;;-7.38
76541;BMP280;65385;55.772;37.658;2024-02-21T01:26:10;100520.09;;;-7.37
76541;BMP280;65385;55.772;37.658;2024-02-21T01:27:13;100519.19;;;-7.36
76541;BMP280;65385;55.772;37.658;2024-02-21T01:28:13;100517.34;;;-7.33
76541;BMP280;65385;55.772;37.658;2024-02-21T01:29:14;100516.44;;;-7.32
76541;BMP280;65385;55.772;37.658;2024-02-21T01:30:15;100527.28;;;-7.30
76541;BMP280;65385;55.772;37.658;2024-02-21T01:31:16;100520.47;;;-7.30
76541;BMP280;65385;55.772;37.658;2024-02-21T01:32:16;100517.81;;;-7.28
76541;BMP280;65385;55.772;37.658;2024-02-21T01:33:17;100521.88;;;-7.26
76541;BMP280;65385;55.772;37.658;2024-02-21T01:34:18;100520.03;;;-7.24
76541;BMP280;65385;55.772;37.658;2024-02-21T01:35:19;100518.97;;;-7.21
76541;BMP280;65385;55.772;37.658;2024-02-21T01:36:20;100513.78;;;-7.20
76541;BMP280;65385;55.772;37.658;2024-02-21T01:37:20;100518.78;;;-7.18
76541;BMP280;65385;55.772;37.658;2024-02-21T01:38:21;100521.06;;;-7.15
76541;BMP280;65385;55.772;37.658;2024-02-21T01:39:22;100509.97;;;-7.14
76541;BMP280;65385;55.772;37.658;2024-02-21T01:40:22;100515.06;;;-7.14
76541;BMP280;65385;55.772;37.658;2024-02-21T01:41:23;100519.22;;;-7.13
76541;BMP280;65385;55.772;37.658;2024-02-21T01:42:25;100514.25;;;-7.15
76541;BMP280;65385;55.772;37.658;2024-02-21T01:43:25;100509.44;;;-7.18
76541;BMP280;65385;55.772;37.658;2024-02-21T01:44:26;100517.50;;;-7.13
76541;BMP280;65385;55.772;37.658;2024-02-21T01:45:27;100512.19;;;-7.10
76541;BMP280;65385;55.772;37.658;2024-02-21T01:46:28;100517.28;;;-7.10
76541;BMP280;65385;55.772;37.658;2024-02-21T01:47:28;100517.84;;;-7.06
76541;BMP280;65385;55.772;37.658;2024-02-21T01:48:29;100514.41;;;-7.05
76541;BMP280;65385;55.772;37.658;2024-02-21T01:49:30;100511.75;;;-7.04
76541;BMP280;65385;55.772;37.658;2024-02-21T01:50:30;100517.50;;;-7.02
76541;BMP280;65385;55.772;37.658;2024-02-21T01:51:31;100506.41;;;-7.01
76541;BMP280;65385;55.772;37.658;2024-02-21T01:52:33;100508.84;;;-6.99
76541;BMP280;65385;55.772;37.658;2024-02-21T01:53:37;100512.19;;;-6.98
76541;BMP280;65385;55.772;37.658;2024-02-21T01:54:38;100514.59;;;-6.97
76541;BMP280;65385;55.772;37.658;2024-02-21T01:55:38;100511.97;;;-6.95
76541;BMP280;65385;55.772;37.658;2024-02-21T01:56:39;100504.34;;;-6.95
76541;BMP280;65385;55.772;37.658;2024-02-21T01:57:41;100507.56;;;-6.93
76541;BMP280;65385;55.772;37.658;2024-02-21T01:58:43;100504.91;;;-6.92
76541;BMP280;65385;55.772;37.658;2024-02-21T01:59:44;100511.50;;;-6.89
76541;BMP280;65385;55.772;37.658;2024-02-21T02:00:47;100508.97;;;-6.89
76541;BMP280;65385;55.772;37.658;2024-02-21T02:01:48;100499.59;;;-6.89
76541;BMP280;65385;55.772;37.658;2024-02-21T02:02:50;100502.97;;;-6.88
76541;BMP280;65385;55.772;37.658;2024-02-21T02:03:51;100493.72;;;-6.89
76541;BMP280;65385;55.772;37.658;2024-02-21T02:04:54;100502.16;;;-6.89
76541;BMP280;65385;55.772;37.658;2024-02-21T02:05:54;100510.59;;;-6.88
76541;BMP280;65385;55.772;37.658;2024-02-21T02:06:55;100498.53;;;-6.86
76541;BMP280;65385;55.772;37.658;2024-02-21T02:07:56;100496.81;;;-6.86
76541;BMP280;65385;55.772;37.658;2024-02-21T02:08:56;100500.03;;;-6.84
76541;BMP280;65385;55.772;37.658;2024-02-21T02:09:57;100497.44;;;-6.82
76541;BMP280;65385;55.772;37.658;2024-02-21T02:10:59;100498.22;;;-6.82
76541;BMP280;65385;55.772;37.658;2024-02-21T02:12:00;100499.72;;;-6.79
76541;BMP280;65385;55.772;37.658;2024-02-21T02:13:00;100492.06;;;-6.79
76541;BMP280;65385;55.772;37.658;2024-02-21T02:14:01;100493.03;;;-6.80
76541;BMP280;65385;55.772;37.658;2024-02-21T02:15:03;100501.09;;;-6.75
76541;BMP280;65385;55.772;37.658;2024-02-21T02:16:05;100494.28;;;-6.75
76541;BMP280;65385;55.772;37.658;2024-02-21T02:17:06;100497.63;;;-6.74
76541;BMP280;65385;55.772;37.658;2024-02-21T02:18:06;100494.97;;;-6.73
76541;BMP280;65385;55.772;37.658;2024-02-21T02:19:07;100492.28;;;-6.71
76541;BMP280;65385;55.772;37.658;2024-02-21T02:20:12;100497.16;;;-6.68
76541;BMP280;65385;55.772;37.658;2024-02-21T02:21:34;100488.63;;;-6.67
76541;BMP280;65385;55.772;37.658;2024-02-21T02:22:39;100493.69;;;-6.67
76541;BMP280;65385;55.772;37.658;2024-02-21T02:23:40;100493.69;;;-6.67
76541;BMP280;65385;55.772;37.658;2024-02-21T02:24:41;100490.25;;;-6.66
76541;BMP280;65385;55.772;37.658;2024-02-21T02:25:42;100500.41;;;-6.66
76541;BMP280;65385;55.772;37.658;2024-02-21T02:26:44;100495.31;;;-6.66
76541;BMP280;65385;55.772;37.658;2024-02-21T02:27:44;100494.50;;;-6.67
76541;BMP280;65385;55.772;37.658;2024-02-21T02:28:45;100491.81;;;-6.65
76541;BMP280;65385;55.772;37.658;2024-02-21T02:29:46;100493.44;;;-6.64
76541;BMP280;65385;55.772;37.658;2024-02-21T02:30:47;100501.75;;;-6.62
76541;BMP280;65385;55.772;37.658;2024-02-21T02:31:49;100503.25;;;-6.59
76541;BMP280;65385;55.772;37.658;2024-02-21T02:32:49;100503.13;;;-6.58
76541;BMP280;65385;55.772;37.658;2024-02-21T02:33:50;100502.19;;;-6.57
76541;BMP280;65385;55.772;37.658;2024-02-21T02:34:51;100498.75;;;-6.56
76541;BMP280;65385;55.772;37.658;2024-02-21T02:35:51;100498.63;;;-6.54
76541;BMP280;65385;55.772;37.658;2024-02-21T02:36:52;100493.56;;;-6.54
76541;BMP280;65385;55.772;37.658;2024-02-21T02:37:52;100492.53;;;-6.52
76541;BMP280;65385;55.772;37.658;2024-02-21T02:38:53;100501.75;;;-6.51
76541;BMP280;65385;55.772;37.658;2024-02-21T02:39:54;100502.41;;;-6.49
76541;BMP280;65385;55.772;37.658;2024-02-21T02:40:54;100498.97;;;-6.48
76541;BMP280;65385;55.772;37.658;2024-02-21T02:41:55;100496.41;;;-6.48
76541;BMP280;65385;55.772;37.658;2024-02-21T02:42:55;100493.88;;;-6.48
76541;BMP280;65385;55.772;37.658;2024-02-21T02:43:56;100498.97;;;-6.48
76541;BMP280;65385;55.772;37.658;2024-02-21T02:44:57;100496.28;;;-6.46
76541;BMP280;65385;55.772;37.658;2024-02-21T02:45:57;100497.91;;;-6.45
76541;BMP280;65385;55.772;37.658;2024-02-21T02:46:58;100488.56;;;-6.45
76541;BMP280;65385;55.772;37.658;2024-02-21T02:47:59;100490.19;;;-6.44
76541;BMP280;65385;55.772;37.658;2024-02-21T02:48:59;100487.50;;;-6.42
76541;BMP280;65385;55.772;37.658;2024-02-21T02:50:00;100488.31;;;-6.42
76541;BMP280;65385;55.772;37.658;2024-02-21T02:51:02;100495.03;;;-6.41
76541;BMP280;65385;55.772;37.658;2024-02-21T02:52:03;100485.66;;;-6.40
76541;BMP280;65385;55.772;37.658;2024-02-21T02:53:04;100491.56;;;-6.40
76541;BMP280;65385;55.772;37.658;2024-02-21T02:54:04;100486.47;;;-6.40
76541;BMP280;65385;55.772;37.658;2024-02-21T02:55:06;100492.34;;;-6.39
76541;BMP280;65385;55.772;37.658;2024-02-21T02:56:06;100487.28;;;-6.39
76541;BMP280;65385;55.772;37.658;2024-02-21T02:57:07;100483.81;;;-6.38
76541;BMP280;65385;55.772;37.658;2024-02-21T02:58:08;100491.31;;;-6.37
76541;BMP280;65385;55.772;37.658;2024-02-21T02:59:09;100490.25;;;-6.34
76541;BMP280;65385;55.772;37.658;2024-02-21T03:00:10;100490.25;;;-6.34
76541;BMP280;65385;55.772;37.658;2024-02-21T03:01:11;100489.44;;;-6.35
76541;BMP280;65385;55.772;37.658;2024-02-21T03:02:12;100495.22;;;-6.33
76541;BMP280;65385;55.772;37.658;2024-02-21T03:03:12;100494.28;;;-6.32
76541;BMP280;65385;55.772;37.658;2024-02-21T03:04:13;100485.03;;;-6.33
76541;BMP280;65385;55.772;37.658;2024-02-21T03:05:15;100487.59;;;-6.33
76541;BMP280;65385;55.772;37.658;2024-02-21T03:06:16;100497.75;;;-6.33
76541;BMP280;65385;55.772;37.658;2024-02-21T03:07:17;100493.47;;;-6.32
76541;BMP280;65385;55.772;37.658;2024-02-21T03:08:17;100492.56;;;-6.31
76541;BMP280;65385;55.772;37.658;2024-02-21T03:09:18;100483.19;;;-6.31
76541;BMP280;65385;55.772;37.658;2024-02-21T03:10:19;100483.88;;;-6.28
76541;BMP280;65385;55.772;37.658;2024-02-21T03:11:20;100493.81;;;-6.25
76541;BMP280;65385;55.772;37.658;2024-02-21T03:12:21;100492.19;;;-6.26
76541;BMP280;65385;55.772;37.658;2024-02-21T03:13:28;100493.81;;;-6.25
76541;BMP280;65385;55.772;37.658;2024-02-21T03:14:29;100493.81;;;-6.25
76541;BMP280;65385;55.772;37.658;2024-02-21T03:15:29;100488.72;;;-6.25
76541;BMP280;65385;55.772;37.658;2024-02-21T03:16:30;100491.97;;;-6.23
76541;BMP280;65385;55.772;37.658;2024-02-21T03:17:31;100494.50;;;-6.23
76541;BMP280;65385;55.772;37.658;2024-02-21T03:18:32;100484.34;;;-6.23
76541;BMP280;65385;55.772;37.658;2024-02-21T03:19:33;100486.88;;;-6.23
76541;BMP280;65385;55.772;37.658;2024-02-21T03:20:34;100483.41;;;-6.22
76541;BMP280;65385;55.772;37.658;2024-02-21T03:21:34;100485.03;;;-6.21
76541;BMP280;65385;55.772;37.658;2024-02-21T03:22:35;100483.41;;;-6.22
76541;BMP280;65385;55.772;37.658;2024-02-21T03:23:36;100472.44;;;-6.23
76541;BMP280;65385;55.772;37.658;2024-02-21T03:24:37;100476.69;;;-6.23
76541;BMP280;65385;55.772;37.658;2024-02-21T03:25:37;100480.06;;;-6.23
76541;BMP280;65385;55.772;37.658;2024-02-21T03:26:38;100478.31;;;-6.22
76541;BMP280;65385;55.772;37.658;2024-02-21T03:27:38;100478.31;;;-6.22
76541;BMP280;65385;55.772;37.658;2024-02-21T03:28:39;100481.53;;;-6.20
76541;BMP280;65385;55.772;37.658;2024-02-21T03:29:40;100474.84;;;-6.21
76541;BMP280;65385;55.772;37.658;2024-02-21T03:30:40;100473.91;;;-6.20
76541;BMP280;65385;55.772;37.658;2024-02-21T03:31:41;100484.06;;;-6.20
76541;BMP280;65385;55.772;37.658;2024-02-21T03:32:42;100476.59;;;-6.22
76541;BMP280;65385;55.772;37.658;2024-02-21T03:33:43;100473.22;;;-6.22
76541;BMP280;65385;55.772;37.658;2024-02-21T03:34:44;100476.69;;;-6.23
76541;BMP280;65385;55.772;37.658;2024-02-21T03:35:44;100462.25;;;-6.23
76541;BMP280;65385;55.772;37.658;2024-02-21T03:36:45;100484.22;;;-6.22
76541;BMP280;65385;55.772;37.658;2024-02-21T03:37:46;100483.25;;;-6.21
76541;BMP280;65385;55.772;37.658;2024-02-21T03:38:46;100473.91;;;-6.20
76541;BMP280;65385;55.772;37.658;2024-02-21T03:39:48;100473.78;;;-6.19
76541;BMP280;65385;55.772;37.658;2024-02-21T03:40:48;100477.13;;;-6.18
76541;BMP280;65385;55.772;37.658;2024-02-21T03:41:49;100473.66;;;-6.17
76541;BMP280;65385;55.772;37.658;2024-02-21T03:42:49;100477.81;;;-6.16
76541;BMP280;65385;55.772;37.658;2024-02-21T03:43:50;100471.13;;;-6.17
76541;BMP280;65385;55.772;37.658;2024-02-21T03:44:51;100475.28;;;-6.16
76541;BMP280;65385;55.772;37.658;2024-02-21T03:45:51;100475.19;;;-6.15
76541;BMP280;65385;55.772;37.658;2024-02-21T03:46:52;100473.28;;;-6.13
76541;BMP280;65385;55.772;37.658;2024-02-21T03:47:53;100471.56;;;-6.12
76541;BMP280;65385;55.772;37.658;2024-02-21T03:48:53;100463.94;;;-6.12
76541;BMP280;65385;55.772;37.658;2024-02-21T03:49:54;100479.06;;;-6.11
76541;BMP280;65385;55.772;37.658;2024-02-21T03:50:54;100469.72;;;-6.10
76541;BMP280;65385;55.772;37.658;2024-02-21T03:51:55;100472.25;;;-6.10
76541;BMP280;65385;55.772;37.658;2024-02-21T03:52:56;100471.31;;;-6.09
76541;BMP280;65385;55.772;37.658;2024-02-21T03:53:56;100475.47;;;-6.08
76541;BMP280;65385;55.772;37.658;2024-02-21T03:54:57;100477.09;;;-6.07
76541;BMP280;65385;55.772;37.658;2024-02-21T03:56:01;100468.50;;;-6.06
76541;BMP280;65385;55.772;37.658;2024-02-21T03:57:05;100471.75;;;-6.04
76541;BMP280;65385;55.772;37.658;2024-02-21T03:58:05;100475.09;;;-6.04
76541;BMP280;65385;55.772;37.658;2024-02-21T03:59:07;100463.19;;;-6.03
76541;BMP280;65385;55.772;37.658;2024-02-21T04:00:08;100474.06;;;-6.01
76541;BMP280;65385;55.772;37.658;2024-02-21T04:01:11;100474.72;;;-5.99
76541;BMP280;65385;55.772;37.658;2024-02-21T04:02:12;100474.72;;;-5.99
76541;BMP280;65385;55.772;37.658;2024-02-21T04:03:13;100469.53;;;-5.98
76541;BMP280;65385;55.772;37.658;2024-02-21T04:04:14;100468.59;;;-5.97
76541;BMP280;65385;55.772;37.658;2024-02-21T04:05:16;100468.47;;;-5.95
76541;BMP280;65385;55.772;37.658;2024-02-21T04:06:16;100470.09;;;-5.94
76541;BMP280;65385;55.772;37.658;2024-02-21T04:07:17;100470.91;;;-5.93
76541;BMP280;65385;55.772;37.658;2024-02-21T04:08:17;100465.00;;;-5.94
76541;BMP280;65385;55.772;37.658;2024-02-21T04:09:18;100468.34;;;-5.93
76541;BMP280;65385;55.772;37.658;2024-02-21T04:10:19;100458.97;;;-5.93
76541;BMP280;65385;55.772;37.658;2024-02-21T04:11:19;100471.72;;;-5.93
76541;BMP280;65385;55.772;37.658;2024-02-21T04:12:20;100473.44;;;-5.93
76541;BMP280;65385;55.772;37.658;2024-02-21T04:13:21;100470.91;;;-5.93
76541;BMP280;65385;55.772;37.658;2024-02-21T04:14:23;100469.97;;;-5.92
76541;BMP280;65385;55.772;37.658;2024-02-21T04:15:23;100469.00;;;-5.91
76541;BMP280;65385;55.772;37.658;2024-02-21T04:16:24;100474.00;;;-5.90
76541;BMP280;65385;55.772;37.658;2024-02-21T04:17:24;100478.88;;;-5.87
76541;BMP280;65385;55.772;37.658;2024-02-21T04:18:25;100477.78;;;-5.84
76541;BMP280;65385;55.772;37.658;2024-02-21T04:19:26;100469.38;;;-5.85
76541;BMP280;65385;55.772;37.658;2024-02-21T04:20:27;100468.41;;;-5.84
76541;BMP280;65385;55.772;37.658;2024-02-21T04:21:27;100477.53;;;-5.81
76541;BMP280;65385;55.772;37.658;2024-02-21T04:22:28;100476.50;;;-5.79
76541;BMP280;65385;55.772;37.658;2024-02-21T04:23:28;100472.22;;;-5.78
76541;BMP280;65385;55.772;37.658;2024-02-21T04:24:29;100477.16;;;-5.77
76541;BMP280;65385;55.772;37.658;2024-02-21T04:25:30;100483.75;;;-5.74
76541;BMP280;65385;55.772;37.658;2024-02-21T04:26:30;100484.53;;;-5.74
76541;BMP280;65385;55.772;37.658;2024-02-21T04:27:31;100477.63;;;-5.72
76541;BMP280;65385;55.772;37.658;2024-02-21T04:28:32;100478.28;;;-5.70
76541;BMP280;65385;55.772;37.658;2024-02-21T04:29:32;100474.69;;;-5.67
76541;BMP280;65385;55.772;37.658;2024-02-21T04:30:34;100476.41;;;-5.68
76541;BMP280;65385;55.772;37.658;2024-02-21T04:31:35;100479.78;;;-5.67
76541;BMP280;65385;55.772;37.658;2024-02-21T04:32:35;100477.09;;;-5.66
76541;BMP280;65385;55.772;37.658;2024-02-21T04:33:36;100483.00;;;-5.65
76541;BMP280;65385;55.772;37.658;2024-02-21T04:34:36;100470.28;;;-5.65
76541;BMP280;65385;55.772;37.658;2024-02-21T04:35:37;100474.44;;;-5.64
76541;BMP280;65385;55.772;37.658;2024-02-21T04:36:38;100478.44;;;-5.62
76541;BMP280;65385;55.772;37.658;2024-02-21T04:37:39;100475.09;;;-5.62
76541;BMP280;65385;55.772;37.658;2024-02-21T04:38:39;100464.78;;;-5.61
76541;BMP280;65385;55.772;37.658;2024-02-21T04:39:41;100474.97;;;-5.61
76541;BMP280;65385;55.772;37.658;2024-02-21T04:40:41;100469.75;;;-5.59
76541;BMP280;65385;55.772;37.658;2024-02-21T04:41:42;100470.56;;;-5.58
76541;BMP280;65385;55.772;37.658;2024-02-21T04:42:43;100474.72;;;-5.57
76541;BMP280;65385;55.772;37.658;2024-02-21T04:43:46;100473.13;;;-5.58
76541;BMP280;65385;55.772;37.658;2024-02-21T04:44:46;100480.38;;;-5.54
76541;BMP280;65385;55.772;37.658;2024-02-21T04:45:47;100477.84;;;-5.54
76541;BMP280;65385;55.772;37.658;2024-02-21T04:46:47;100471.00;;;-5.53
76541;BMP280;65385;55.772;37.658;2024-02-21T04:47:48;100472.63;;;-5.52
76541;BMP280;65385;55.772;37.658;2024-02-21T04:48:49;100469.25;;;-5.53
76541;BMP280;65385;55.772;37.658;2024-02-21T04:49:49;100472.63;;;-5.52
76541;BMP280;65385;55.772;37.658;2024-02-21T04:50:50;100476.09;;;-5.53
76541;BMP280;65385;55.772;37.658;2024-02-21T04:51:50;100467.53;;;-5.52
76541;BMP280;65385;55.772;37.658;2024-02-21T04:52:51;100474.25;;;-5.51
76541;BMP280;65385;55.772;37.658;2024-02-21T04:53:51;100473.44;;;-5.52
76541;BMP280;65385;55.772;37.658;2024-02-21T04:54:52;100474.25;;;-5.51
76541;BMP280;65385;55.772;37.658;2024-02-21T04:55:53;100476.78;;;-5.51
76541;BMP280;65385;55.772;37.658;2024-02-21T04:56:53;100465.78;;;-5.52
76541;BMP280;65385;55.772;37.658;2024-02-21T04:57:54;100470.63;;;-5.49
76541;BMP280;65385;55.772;37.658;2024-02-21T04:58:54;100470.63;;;-5.49
76541;BMP280;65385;55.772;37.658;2024-02-21T04:59:55;100469.84;;;-5.49
76541;BMP280;65385;55.772;37.658;2024-02-21T05:00:56;100474.78;;;-5.48
76541;BMP280;65385;55.772;37.658;2024-02-21T05:01:57;100472.09;;;-5.46
76541;BMP280;65385;55.772;37.658;2024-02-21T05:02:59;100473.84;;;-5.47
76541;BMP280;65385;55.772;37.658;2024-02-21T05:03:59;100470.25;;;-5.44
76541;BMP280;65385;55.772;37.658;2024-02-21T05:05:00;100475.31;;;-5.44
76541;BMP280;65385;55.772;37.658;2024-02-21T05:06:00;100479.41;;;-5.42
76541;BMP280;65385;55.772;37.658;2024-02-21T05:07:01;100473.47;;;-5.42
76541;BMP280;65385;55.772;37.658;2024-02-21T05:08:02;100469.06;;;-5.40
76541;BMP280;65385;55.772;37.658;2024-02-21T05:09:02;100475.78;;;-5.39
76541;BMP280;65385;55.772;37.658;2024-02-21T05:10:03;100472.41;;;-5.40
76541;BMP280;65385;55.772;37.658;2024-02-21T05:11:05;100472.16;;;-5.37
76541;BMP280;65385;55.772;37.658;2024-02-21T05:12:06;100477.13;;;-5.35
76541;BMP280;65385;55.772;37.658;2024-02-21T05:13:07;100473.66;;;-5.34
76541;BMP280;65385;55.772;37.658;2024-02-21T05:14:07;100480.34;;;-5.33
76541;BMP280;65385;55.772;37.658;2024-02-21T05:15:08;100473.50;;;-5.33
76541;BMP280;65385;55.772;37.658;2024-02-21T05:16:09;100473.50;;;-5.33
76541;BMP280;65385;55.772;37.658;2024-02-21T05:17:09;100475.00;;;-5.30
76541;BMP280;65385;55.772;37.658;2024-02-21T05:18:10;100476.72;;;-5.31
76541;BMP280;65385;55.772;37.658;2024-02-21T05:19:10;100474.88;;;-5.29
76541;BMP280;65385;55.772;37.658;2024-02-21T05:20:11;100479.03;;;-5.28
76541;BMP280;65385;55.772;37.658;2024-02-21T05:21:12;100474.75;;;-5.27
76541;BMP280;65385;55.772;37.658;2024-02-21T05:22:13;100477.28;;;-5.27
76541;BMP280;65385;55.772;37.658;2024-02-21T05:23:13;100471.22;;;-5.26
76541;BMP280;65385;55.772;37.658;2024-02-21T05:24:14;100472.06;;;-5.26
76541;BMP280;65385;55.772;37.658;2024-02-21T05:25:15;100481.34;;;-5.25
76541;BMP280;65385;55.772;37.658;2024-02-21T05:26:25;100481.88;;;-5.21
76541;BMP280;65385;55.772;37.658;2024-02-21T05:27:26;100476.09;;;-5.23
76541;BMP280;65385;55.772;37.658;2024-02-21T05:28:26;100473.44;;;-5.21
76541;BMP280;65385;55.772;37.658;2024-02-21T05:29:27;100473.31;;;-5.20
76541;BMP280;65385;55.772;37.658;2024-02-21T05:30:27;100479.75;;;-5.16
76541;BMP280;65385;55.772;37.658;2024-02-21T05:32:51;100476.94;;;-5.13
76541;BMP280;65385;55.772;37.658;2024-02-21T05:33:51;100480.84;;;-5.09
76541;BMP280;65385;55.772;37.658;2024-02-21T05:34:52;100474.13;;;-5.10
76541;BMP280;65385;55.772;37.658;2024-02-21T05:35:52;100473.19;;;-5.09
76541;BMP280;65385;55.772;37.658;2024-02-21T05:36:53;100479.00;;;-5.07
76541;BMP280;65385;55.772;37.658;2024-02-21T05:37:54;100479.69;;;-5.05
76541;BMP280;65385;55.772;37.658;2024-02-21T05:38:55;100472.03;;;-5.05
76541;BMP280;65385;55.772;37.658;2024-02-21T05:39:55;100470.94;;;-5.02
76541;BMP280;65385;55.772;37.658;2024-02-21T05:40:56;100472.44;;;-5.00
76541;BMP280;65385;55.772;37.658;2024-02-21T05:41:57;100473.91;;;-4.97